x

Western Caribbean - 195 Nm Wsw Of Negril Jamiaca (42057) Wave Buoy

12:50am - Mon 30th Mar 2015 All times are UTC.

  • Sig Wave height 3.9ft
  • Swell Direction
  • Peak Period 8s
  • Average Period 5s
  • Wind
    16mph, 18mph gusts
  • Sea Temp 82°f
  • Air Temp 81°f
  • Sea Pressure 1016.9mb

More Historic Weather Station data

Upgrade to MSW Pro to gain access to the past 30 days of data for over 8000 Wavebouys and Weather Stations around the globe.

Join Pro

Comparision Forecast

View Surf forecast
   
Mon 03/30 12:50am 4ft 8s 5s 16 18 mph 1016.9mb 82f 81f
Sun 03/29 11:50pm 4.5ft 8s 5s 13
mph
1016.7mb 82f 81f
10:50pm 4.5ft 7s 5s 11 16 mph 1016.2mb 82f 81f
9:50pm 4ft 6s 5s 13 16 mph 1015.9mb 82f 81f
8:50pm 4.5ft 8s 5s 11 13 mph 1016mb 82f 81f
7:50pm 3.5ft 8s 5s 11 13 mph 1016.4mb 82f 81f
6:50pm 3.5ft 8s 5s 13 16 mph 1017.3mb 82f 81f
5:50pm 3ft 8s 5s 16 18 mph 1018.2mb 82f 81f
4:50pm 2.5ft 8s 5s 16 18 mph 1018.8mb 82f 81f
3:50pm 2.5ft 8s 4s 16 18 mph 1019.1mb 82f 80f
2:50pm 2.5ft 8s 4s 20 22 mph 1018.9mb 82f 80f
1:50pm 2.5ft 8s 4s 16 18 mph 1018.6mb 82f 81f
12:50pm 2.5ft 8s 4s 13 16 mph 1018.1mb 81f 81f
11:50am 2.5ft 8s 5s 13 16 mph 1017.6mb 82f 80f
10:50am 2.5ft 8s 5s 13 16 mph 1017.3mb 82f 80f
9:50am 2.5ft 8s 5s 11 13 mph 1016.9mb 82f 80f
8:50am 2.5ft 8s 5s 11 13 mph 1016.4mb 82f 80f
7:50am 2.5ft 7s 5s 11
mph
1016.6mb 82f 80f
6:50am 2.5ft 8s 5s 9
mph
1016.9mb 82f 80f
5:50am 2.5ft 8s 5s 7 9 mph 1017.7mb 82f 81f
4:50am 2.5ft 7s 5s 9 11 mph 1018.2mb 82f 81f
3:50am 2.5ft 8s 5s 7 9 mph 1018.4mb 82f 81f
2:50am 3ft 8s 5s 7 9 mph 1018.2mb 83f 81f
1:50am 3ft 8s 5s 7 9 mph 1017.5mb 83f 81f
12:50am 3ft 8s 5s 2 4 mph 1017mb 83f 81f
Sat 03/28 11:50pm 3ft 8s 5s 2 4 mph 1016.2mb 83f 80f
10:50pm 3.5ft 7s 6s 4 7 mph 1015.6mb 83f 81f
9:50pm 3.5ft 8s 6s 7 9 mph 1015.3mb 84f 79f
8:50pm 3.5ft 8s 6s 7 9 mph 1014.8mb 84f 81f
7:50pm 2.5ft 8s 5s 7
mph
1015.4mb 85f 81f
6:50pm 3ft 7s 6s 9 11 mph 1016mb 83f 81f
5:50pm 3.5ft 8s 5s 2
mph
1017mb 85f 82f
4:50pm 2.5ft 7s 5s 2
mph
1017.8mb 84f 81f
3:50pm 2.5ft 7s 5s 2 4 mph 1018.1mb 83f 81f
2:50pm 2.5ft 8s 5s 4 7 mph 1018mb 83f 81f
1:50pm 2.5ft 8s 5s 2 4 mph 1017.9mb 82f 81f
12:50pm 3ft 8s 5s 4
mph
1017.1mb 82f 81f
11:50am 3ft 6s 5s 4 7 mph 1016.7mb 82f 80f
10:50am 2.5ft 6s 5s 4 7 mph 1015.8mb 82f 80f
9:50am 3ft 8s 5s 2 4 mph 1015.4mb 82f 80f
8:50am 3ft 8s 5s 4
mph
1014.9mb 82f 80f
7:50am 3ft 6s 5s 4 7 mph 1014.9mb 82f 80f
6:50am 3ft 7s 5s 9
mph
1014.9mb 82f 80f
5:50am 3ft 6s 5s 4 7 mph 1015.9mb 82f 80f
4:50am 3ft 7s 5s 4 7 mph 1016.3mb 82f 81f
3:50am 3ft 6s 5s 4 7 mph 1016.6mb 82f 81f
2:50am 3.5ft 6s 5s 7 9 mph 1016.1mb 82f 81f
1:50am 3.5ft 5s 5s 7 9 mph 1015.1mb 82f 81f
12:50am 3.5ft 7s 5s 7 9 mph 1014.5mb 82f 81f
Fri 03/27 11:50pm 3.5ft 7s 5s 9 11 mph 1013.8mb 83f 81f
10:50pm 3ft 7s 5s 11 13 mph 1013.4mb 83f 81f
9:50pm 3.5ft 7s 5s 11 13 mph 1013.3mb 83f 82f
8:50pm 3ft 4s 4s 13
mph
1013mb 83f 82f
7:50pm 3ft 7s 5s 11 13 mph 1013.4mb 83f 82f
6:50pm 3.5ft 7s 5s 13
mph
1013.9mb 83f 81f
5:50pm 3.5ft 7s 5s 13 16 mph 1014.5mb 82f 81f
4:50pm 3ft 7s 4s 13 16 mph 1015.1mb 82f 81f
3:50pm 3ft 6s 4s 13 16 mph 1015.3mb 82f 81f
2:50pm 3ft 7s 5s 13 16 mph 1015.4mb 82f 81f
1:50pm 3ft 7s 4s 13
mph
1015.5mb 82f 81f
12:50pm 3ft 7s 4s 13 16 mph 1014.9mb 82f 81f
11:50am 2.5ft 8s 4s 13 16 mph 1014.3mb 82f 80f
10:50am 3ft 7s 4s 13 18 mph 1013.4mb 82f 80f
9:50am 3ft 7s 4s 13 16 mph 1013.1mb 82f 80f
8:50am 3ft 6s 4s 13 18 mph 1012.8mb 82f 80f
7:50am 3ft 7s 4s 13 16 mph 1013.1mb 82f 80f
6:50am 3ft 7s 4s 13 18 mph 1013.2mb 82f 80f
5:50am 3ft 6s 4s 16 18 mph 1013.5mb 82f 81f
4:50am 2.5ft 7s 4s 16 20 mph 1014.2mb 82f 81f
3:50am 2.5ft 7s 4s 16 20 mph 1014.7mb 82f 81f
2:50am 2.5ft 7s 4s 16 18 mph 1014.5mb 82f 81f
1:50am 3ft 8s 5s 13 16 mph 1014.2mb 82f 81f
12:50am 3ft 7s 5s 13 16 mph 1014mb 82f 81f
Thu 03/26 11:50pm 3ft 7s 5s 11 13 mph 1013.8mb 83f 81f
10:50pm 3ft 6s 4s 11 13 mph 1013.8mb 83f 81f
9:50pm 3ft 5s 4s 11 13 mph 1013.6mb 83f 81f
8:50pm 2.5ft 7s 4s 11 13 mph 1013.7mb 83f 81f
7:50pm 3ft 6s 4s 11 16 mph 1014.1mb 82f 81f
6:50pm 2.5ft 4s 4s 11 13 mph 1014.8mb 82f 81f
5:50pm 3ft 7s 4s 11 13 mph 1015.5mb 82f 81f
4:50pm 2.5ft 6s 4s 11 13 mph 1016.4mb 82f 81f
3:50pm 2.5ft 5s 4s 11 13 mph 1017mb 82f 81f
2:50pm 2.5ft 4s 4s 11 13 mph 1017.1mb 82f 81f
1:50pm 2.5ft 5s 4s 13 18 mph 1016.7mb 82f 81f
12:50pm 2.5ft 5s 4s 16 18 mph 1015.9mb 82f 81f
11:50am 2.5ft 6s 4s 13 16 mph 1015.2mb 82f 81f
10:50am 2ft 6s 4s 13 16 mph 1014.7mb 82f 80f
9:50am 2.5ft 6s 4s 11 16 mph 1014.4mb 82f 80f
8:50am 2ft 7s 4s 11 13 mph 1014.2mb 82f 80f
7:50am 2.5ft 5s 4s 13 16 mph 1014.5mb 82f 81f
6:50am 2.5ft 4s 4s 13
mph
1015.1mb 82f 80f
5:50am 2.5ft 4s 4s 13 16 mph 1015.9mb 82f 81f
4:50am 2ft 4s 4s 13 16 mph 1016.6mb 82f 81f
3:50am 2.5ft 4s 4s 11 16 mph 1017.1mb 82f 81f
2:50am 2ft 4s 4s 11 13 mph 1017mb 82f 81f
1:50am 2ft 4s 4s 13 16 mph 1016.5mb 82f 81f